sensor_id;sensor_type;location;lat;lon;timestamp;temperature;humidity
11894;DHT22;6006;49.696;8.662;2022-11-20T00:00:39;3.30;99.90
11894;DHT22;6006;49.696;8.662;2022-11-20T00:03:07;3.20;99.90
11894;DHT22;6006;49.696;8.662;2022-11-20T00:05:34;3.20;99.90
11894;DHT22;6006;49.696;8.662;2022-11-20T00:08:01;3.20;99.90
11894;DHT22;6006;49.696;8.662;2022-11-20T00:10:28;3.20;99.90
11894;DHT22;6006;49.696;8.662;2022-11-20T00:12:54;3.20;99.90
11894;DHT22;6006;49.696;8.662;2022-11-20T00:15:21;3.20;99.90
11894;DHT22;6006;49.696;8.662;2022-11-20T00:17:48;3.20;99.90
11894;DHT22;6006;49.696;8.662;2022-11-20T00:20:17;3.20;99.90
11894;DHT22;6006;49.696;8.662;2022-11-20T00:22:44;3.20;99.90
11894;DHT22;6006;49.696;8.662;2022-11-20T00:25:11;3.20;99.90
11894;DHT22;6006;49.696;8.662;2022-11-20T00:27:38;3.20;99.90
11894;DHT22;6006;49.696;8.662;2022-11-20T00:30:06;3.20;99.90
11894;DHT22;6006;49.696;8.662;2022-11-20T00:32:33;3.20;99.90
11894;DHT22;6006;49.696;8.662;2022-11-20T00:35:00;3.20;99.90
11894;DHT22;6006;49.696;8.662;2022-11-20T00:37:28;3.20;99.90
11894;DHT22;6006;49.696;8.662;2022-11-20T00:39:55;3.20;99.90
11894;DHT22;6006;49.696;8.662;2022-11-20T00:42:22;3.20;99.90
11894;DHT22;6006;49.696;8.662;2022-11-20T00:44:49;3.20;99.90
11894;DHT22;6006;49.696;8.662;2022-11-20T00:47:16;3.20;99.90
11894;DHT22;6006;49.696;8.662;2022-11-20T00:49:43;3.20;99.90
11894;DHT22;6006;49.696;8.662;2022-11-20T00:52:09;3.20;99.90
11894;DHT22;6006;49.696;8.662;2022-11-20T00:54:38;3.30;99.90
11894;DHT22;6006;49.696;8.662;2022-11-20T00:57:04;3.20;99.90
11894;DHT22;6006;49.696;8.662;2022-11-20T00:59:31;3.20;99.90
11894;DHT22;6006;49.696;8.662;2022-11-20T01:01:58;3.20;99.90
11894;DHT22;6006;49.696;8.662;2022-11-20T01:04:25;3.10;99.90
11894;DHT22;6006;49.696;8.662;2022-11-20T01:06:52;3.10;99.90
11894;DHT22;6006;49.696;8.662;2022-11-20T01:09:18;3.10;99.90
11894;DHT22;6006;49.696;8.662;2022-11-20T01:11:47;3.20;99.90
11894;DHT22;6006;49.696;8.662;2022-11-20T01:14:16;3.20;99.90
11894;DHT22;6006;49.696;8.662;2022-11-20T01:16:44;3.20;99.90
11894;DHT22;6006;49.696;8.662;2022-11-20T01:19:13;3.20;99.90
11894;DHT22;6006;49.696;8.662;2022-11-20T01:21:42;3.20;99.90
11894;DHT22;6006;49.696;8.662;2022-11-20T01:24:11;3.20;99.90
11894;DHT22;6006;49.696;8.662;2022-11-20T01:26:39;3.20;99.90
11894;DHT22;6006;49.696;8.662;2022-11-20T01:29:12;3.20;99.90
11894;DHT22;6006;49.696;8.662;2022-11-20T01:31:39;3.20;99.90
11894;DHT22;6006;49.696;8.662;2022-11-20T01:34:08;3.20;99.90
11894;DHT22;6006;49.696;8.662;2022-11-20T01:36:36;3.20;99.90
11894;DHT22;6006;49.696;8.662;2022-11-20T01:39:05;3.30;99.90
11894;DHT22;6006;49.696;8.662;2022-11-20T01:41:33;3.30;99.90
11894;DHT22;6006;49.696;8.662;2022-11-20T01:44:22;3.30;99.90
11894;DHT22;6006;49.696;8.662;2022-11-20T01:46:54;3.40;99.90
11894;DHT22;6006;49.696;8.662;2022-11-20T01:49:25;3.40;99.90
11894;DHT22;6006;49.696;8.662;2022-11-20T01:51:56;3.40;99.90
11894;DHT22;6006;49.696;8.662;2022-11-20T01:54:28;3.40;99.90
11894;DHT22;6006;49.696;8.662;2022-11-20T01:56:58;3.30;99.90
11894;DHT22;6006;49.696;8.662;2022-11-20T01:59:28;3.30;99.90
11894;DHT22;6006;49.696;8.662;2022-11-20T02:01:56;3.30;99.90
11894;DHT22;6006;49.696;8.662;2022-11-20T02:04:23;3.30;99.90
11894;DHT22;6006;49.696;8.662;2022-11-20T02:06:53;3.40;99.90
11894;DHT22;6006;49.696;8.662;2022-11-20T02:09:23;3.30;99.90
11894;DHT22;6006;49.696;8.662;2022-11-20T02:11:50;3.30;99.90
11894;DHT22;6006;49.696;8.662;2022-11-20T02:14:17;3.30;99.90
11894;DHT22;6006;49.696;8.662;2022-11-20T02:16:46;3.30;99.90
11894;DHT22;6006;49.696;8.662;2022-11-20T02:19:19;3.30;99.90
11894;DHT22;6006;49.696;8.662;2022-11-20T02:21:55;3.30;99.90
11894;DHT22;6006;49.696;8.662;2022-11-20T02:24:24;3.30;99.90
11894;DHT22;6006;49.696;8.662;2022-11-20T02:26:54;3.30;99.90
11894;DHT22;6006;49.696;8.662;2022-11-20T02:29:25;3.30;99.90
11894;DHT22;6006;49.696;8.662;2022-11-20T02:31:55;3.90;99.90
11894;DHT22;6006;49.696;8.662;2022-11-20T02:34:22;3.30;99.90
11894;DHT22;6006;49.696;8.662;2022-11-20T02:36:49;3.40;99.90
11894;DHT22;6006;49.696;8.662;2022-11-20T02:39:19;3.40;99.90
11894;DHT22;6006;49.696;8.662;2022-11-20T02:41:48;3.40;99.90
11894;DHT22;6006;49.696;8.662;2022-11-20T02:44:15;3.40;99.90
11894;DHT22;6006;49.696;8.662;2022-11-20T02:46:42;3.40;99.90
11894;DHT22;6006;49.696;8.662;2022-11-20T02:49:09;3.40;99.90
11894;DHT22;6006;49.696;8.662;2022-11-20T02:51:36;3.40;99.90
11894;DHT22;6006;49.696;8.662;2022-11-20T02:54:03;3.40;99.90
11894;DHT22;6006;49.696;8.662;2022-11-20T02:56:30;3.40;99.90
11894;DHT22;6006;49.696;8.662;2022-11-20T02:58:58;3.30;99.90
11894;DHT22;6006;49.696;8.662;2022-11-20T03:01:25;3.30;99.90
11894;DHT22;6006;49.696;8.662;2022-11-20T03:03:52;3.30;99.90
11894;DHT22;6006;49.696;8.662;2022-11-20T03:06:20;3.40;99.90
11894;DHT22;6006;49.696;8.662;2022-11-20T03:08:47;3.30;99.90
11894;DHT22;6006;49.696;8.662;2022-11-20T03:11:14;3.30;99.90
11894;DHT22;6006;49.696;8.662;2022-11-20T03:13:41;3.30;99.90
11894;DHT22;6006;49.696;8.662;2022-11-20T03:16:12;3.30;99.90
11894;DHT22;6006;49.696;8.662;2022-11-20T03:18:39;3.30;99.90
11894;DHT22;6006;49.696;8.662;2022-11-20T03:21:07;3.30;99.90
11894;DHT22;6006;49.696;8.662;2022-11-20T03:23:35;3.30;99.90
11894;DHT22;6006;49.696;8.662;2022-11-20T03:26:14;3.30;99.90
11894;DHT22;6006;49.696;8.662;2022-11-20T03:28:42;3.20;99.90
11894;DHT22;6006;49.696;8.662;2022-11-20T03:31:15;3.20;99.90
11894;DHT22;6006;49.696;8.662;2022-11-20T03:33:43;3.20;99.90
11894;DHT22;6006;49.696;8.662;2022-11-20T03:36:11;3.30;99.90
11894;DHT22;6006;49.696;8.662;2022-11-20T03:38:39;3.30;99.90
11894;DHT22;6006;49.696;8.662;2022-11-20T03:41:07;3.30;99.90
11894;DHT22;6006;49.696;8.662;2022-11-20T03:43:34;3.30;99.90
11894;DHT22;6006;49.696;8.662;2022-11-20T03:46:02;3.20;99.90
11894;DHT22;6006;49.696;8.662;2022-11-20T03:48:31;3.20;99.90
11894;DHT22;6006;49.696;8.662;2022-11-20T03:51:08;3.30;99.90
11894;DHT22;6006;49.696;8.662;2022-11-20T03:53:35;3.30;99.90
11894;DHT22;6006;49.696;8.662;2022-11-20T03:56:03;3.30;99.90
11894;DHT22;6006;49.696;8.662;2022-11-20T03:58:30;3.30;99.90
11894;DHT22;6006;49.696;8.662;2022-11-20T04:00:57;3.30;99.90
11894;DHT22;6006;49.696;8.662;2022-11-20T04:03:24;3.30;99.90
11894;DHT22;6006;49.696;8.662;2022-11-20T04:05:53;3.20;99.90
11894;DHT22;6006;49.696;8.662;2022-11-20T04:08:20;3.30;99.90
11894;DHT22;6006;49.696;8.662;2022-11-20T04:10:46;3.30;99.90
11894;DHT22;6006;49.696;8.662;2022-11-20T04:13:13;3.30;99.90
11894;DHT22;6006;49.696;8.662;2022-11-20T04:15:40;3.30;99.90
11894;DHT22;6006;49.696;8.662;2022-11-20T04:18:07;3.40;99.90
11894;DHT22;6006;49.696;8.662;2022-11-20T04:20:35;3.40;99.90
11894;DHT22;6006;49.696;8.662;2022-11-20T04:23:03;3.40;99.90
11894;DHT22;6006;49.696;8.662;2022-11-20T04:25:30;3.40;99.90
11894;DHT22;6006;49.696;8.662;2022-11-20T04:27:57;3.50;99.90
11894;DHT22;6006;49.696;8.662;2022-11-20T04:30:23;3.50;99.90
11894;DHT22;6006;49.696;8.662;2022-11-20T04:32:50;3.50;99.90
11894;DHT22;6006;49.696;8.662;2022-11-20T04:35:18;3.50;99.90
11894;DHT22;6006;49.696;8.662;2022-11-20T04:37:45;3.50;99.90
11894;DHT22;6006;49.696;8.662;2022-11-20T04:40:13;3.50;99.90
11894;DHT22;6006;49.696;8.662;2022-11-20T04:42:40;3.50;99.90
11894;DHT22;6006;49.696;8.662;2022-11-20T04:45:07;3.50;99.90
11894;DHT22;6006;49.696;8.662;2022-11-20T04:47:34;3.50;99.90
11894;DHT22;6006;49.696;8.662;2022-11-20T04:50:02;3.50;99.90
11894;DHT22;6006;49.696;8.662;2022-11-20T04:52:28;3.50;99.90
11894;DHT22;6006;49.696;8.662;2022-11-20T04:54:55;3.60;99.90
11894;DHT22;6006;49.696;8.662;2022-11-20T04:57:24;3.60;99.90
11894;DHT22;6006;49.696;8.662;2022-11-20T04:59:50;3.60;99.90
11894;DHT22;6006;49.696;8.662;2022-11-20T05:02:17;3.70;99.90
11894;DHT22;6006;49.696;8.662;2022-11-20T05:04:44;3.60;99.90
11894;DHT22;6006;49.696;8.662;2022-11-20T05:07:11;3.50;99.90
11894;DHT22;6006;49.696;8.662;2022-11-20T05:09:38;3.50;99.90
11894;DHT22;6006;49.696;8.662;2022-11-20T05:12:07;3.90;99.90
11894;DHT22;6006;49.696;8.662;2022-11-20T05:14:35;3.60;99.90
11894;DHT22;6006;49.696;8.662;2022-11-20T05:17:02;3.70;99.90
11894;DHT22;6006;49.696;8.662;2022-11-20T05:19:29;3.60;99.90
11894;DHT22;6006;49.696;8.662;2022-11-20T05:21:56;3.70;99.90
11894;DHT22;6006;49.696;8.662;2022-11-20T05:24:23;3.70;99.90
11894;DHT22;6006;49.696;8.662;2022-11-20T05:26:50;3.70;99.90
11894;DHT22;6006;49.696;8.662;2022-11-20T05:29:17;3.70;99.90
11894;DHT22;6006;49.696;8.662;2022-11-20T05:31:45;3.70;99.90
11894;DHT22;6006;49.696;8.662;2022-11-20T05:34:12;3.60;99.90
11894;DHT22;6006;49.696;8.662;2022-11-20T05:36:38;3.70;99.90
11894;DHT22;6006;49.696;8.662;2022-11-20T05:39:05;3.70;99.90
11894;DHT22;6006;49.696;8.662;2022-11-20T05:41:33;3.70;99.90
11894;DHT22;6006;49.696;8.662;2022-11-20T05:43:59;3.70;99.90
11894;DHT22;6006;49.696;8.662;2022-11-20T05:46:26;3.70;99.90
11894;DHT22;6006;49.696;8.662;2022-11-20T05:48:55;3.80;99.90
11894;DHT22;6006;49.696;8.662;2022-11-20T05:51:22;4.10;99.90
11894;DHT22;6006;49.696;8.662;2022-11-20T05:53:49;3.80;99.90
11894;DHT22;6006;49.696;8.662;2022-11-20T05:56:18;3.90;99.90
11894;DHT22;6006;49.696;8.662;2022-11-20T05:58:46;3.80;99.90
11894;DHT22;6006;49.696;8.662;2022-11-20T06:01:15;3.80;99.90
11894;DHT22;6006;49.696;8.662;2022-11-20T06:03:43;3.80;99.90
11894;DHT22;6006;49.696;8.662;2022-11-20T06:06:13;3.80;99.90
11894;DHT22;6006;49.696;8.662;2022-11-20T06:08:41;3.90;99.90
11894;DHT22;6006;49.696;8.662;2022-11-20T06:11:10;3.90;99.90
11894;DHT22;6006;49.696;8.662;2022-11-20T06:13:38;3.90;99.90
11894;DHT22;6006;49.696;8.662;2022-11-20T06:16:05;3.90;99.90
11894;DHT22;6006;49.696;8.662;2022-11-20T06:18:32;4.00;99.90
11894;DHT22;6006;49.696;8.662;2022-11-20T06:21:00;3.80;99.90
11894;DHT22;6006;49.696;8.662;2022-11-20T06:23:30;3.90;99.90
11894;DHT22;6006;49.696;8.662;2022-11-20T06:25:58;4.00;99.90
11894;DHT22;6006;49.696;8.662;2022-11-20T06:28:24;3.90;99.90
11894;DHT22;6006;49.696;8.662;2022-11-20T06:30:51;3.90;99.90
11894;DHT22;6006;49.696;8.662;2022-11-20T06:33:18;4.00;99.90
11894;DHT22;6006;49.696;8.662;2022-11-20T06:35:45;3.90;99.90
11894;DHT22;6006;49.696;8.662;2022-11-20T06:38:12;3.90;99.90
11894;DHT22;6006;49.696;8.662;2022-11-20T06:40:41;3.90;99.90
11894;DHT22;6006;49.696;8.662;2022-11-20T06:43:08;3.90;99.90
11894;DHT22;6006;49.696;8.662;2022-11-20T06:45:35;4.00;99.90
11894;DHT22;6006;49.696;8.662;2022-11-20T06:48:02;4.00;99.90
11894;DHT22;6006;49.696;8.662;2022-11-20T06:50:29;4.00;99.90
11894;DHT22;6006;49.696;8.662;2022-11-20T06:52:56;4.00;99.90
11894;DHT22;6006;49.696;8.662;2022-11-20T06:55:26;4.00;99.90
11894;DHT22;6006;49.696;8.662;2022-11-20T06:57:54;4.00;99.90
11894;DHT22;6006;49.696;8.662;2022-11-20T07:00:21;4.10;99.90
11894;DHT22;6006;49.696;8.662;2022-11-20T07:02:48;4.10;99.90
11894;DHT22;6006;49.696;8.662;2022-11-20T07:05:15;4.10;99.90
11894;DHT22;6006;49.696;8.662;2022-11-20T07:07:42;4.10;99.90
11894;DHT22;6006;49.696;8.662;2022-11-20T07:10:09;4.20;99.90
11894;DHT22;6006;49.696;8.662;2022-11-20T07:12:36;4.20;99.90
11894;DHT22;6006;49.696;8.662;2022-11-20T07:15:06;4.20;99.90
11894;DHT22;6006;49.696;8.662;2022-11-20T07:17:33;4.20;99.90
11894;DHT22;6006;49.696;8.662;2022-11-20T07:20:00;4.20;99.90
11894;DHT22;6006;49.696;8.662;2022-11-20T07:22:27;4.20;99.90
11894;DHT22;6006;49.696;8.662;2022-11-20T07:24:54;4.20;99.90
11894;DHT22;6006;49.696;8.662;2022-11-20T07:27:20;4.20;99.90
11894;DHT22;6006;49.696;8.662;2022-11-20T07:29:47;4.30;99.90
11894;DHT22;6006;49.696;8.662;2022-11-20T07:32:15;4.30;99.90
11894;DHT22;6006;49.696;8.662;2022-11-20T07:34:42;4.70;99.90
11894;DHT22;6006;49.696;8.662;2022-11-20T07:37:09;5.10;99.90
11894;DHT22;6006;49.696;8.662;2022-11-20T07:39:36;5.00;99.90
11894;DHT22;6006;49.696;8.662;2022-11-20T07:42:03;5.00;99.90
11894;DHT22;6006;49.696;8.662;2022-11-20T07:44:30;5.00;99.90
11894;DHT22;6006;49.696;8.662;2022-11-20T07:46:56;4.70;99.90
11894;DHT22;6006;49.696;8.662;2022-11-20T07:49:25;4.70;99.90
11894;DHT22;6006;49.696;8.662;2022-11-20T07:51:52;4.60;99.90
11894;DHT22;6006;49.696;8.662;2022-11-20T07:54:20;4.50;99.90
11894;DHT22;6006;49.696;8.662;2022-11-20T07:56:47;4.40;99.90
11894;DHT22;6006;49.696;8.662;2022-11-20T07:59:13;4.40;99.90
11894;DHT22;6006;49.696;8.662;2022-11-20T08:01:41;4.40;99.90
11894;DHT22;6006;49.696;8.662;2022-11-20T08:04:08;4.50;99.90
11894;DHT22;6006;49.696;8.662;2022-11-20T08:06:37;4.40;99.90
11894;DHT22;6006;49.696;8.662;2022-11-20T08:09:04;4.50;99.90
11894;DHT22;6006;49.696;8.662;2022-11-20T08:11:30;4.50;99.90
11894;DHT22;6006;49.696;8.662;2022-11-20T08:14:15;4.50;99.90
11894;DHT22;6006;49.696;8.662;2022-11-20T08:16:43;4.50;99.90
11894;DHT22;6006;49.696;8.662;2022-11-20T08:19:11;4.60;99.90
11894;DHT22;6006;49.696;8.662;2022-11-20T08:21:40;4.40;99.90
11894;DHT22;6006;49.696;8.662;2022-11-20T08:24:07;4.20;99.90
11894;DHT22;6006;49.696;8.662;2022-11-20T08:26:35;4.30;99.90
11894;DHT22;6006;49.696;8.662;2022-11-20T08:29:02;4.10;99.90
11894;DHT22;6006;49.696;8.662;2022-11-20T08:31:30;4.10;99.90
11894;DHT22;6006;49.696;8.662;2022-11-20T08:33:57;4.10;99.90
11894;DHT22;6006;49.696;8.662;2022-11-20T08:36:24;4.20;99.90
11894;DHT22;6006;49.696;8.662;2022-11-20T08:38:54;4.20;99.90
11894;DHT22;6006;49.696;8.662;2022-11-20T08:41:22;4.20;99.90
11894;DHT22;6006;49.696;8.662;2022-11-20T08:43:54;4.20;99.90
11894;DHT22;6006;49.696;8.662;2022-11-20T08:46:22;4.30;99.90
11894;DHT22;6006;49.696;8.662;2022-11-20T08:48:49;4.30;99.90
11894;DHT22;6006;49.696;8.662;2022-11-20T08:51:15;4.40;99.90
11894;DHT22;6006;49.696;8.662;2022-11-20T08:53:42;4.40;99.90
11894;DHT22;6006;49.696;8.662;2022-11-20T08:56:11;4.40;99.90
11894;DHT22;6006;49.696;8.662;2022-11-20T08:58:38;4.40;99.90
11894;DHT22;6006;49.696;8.662;2022-11-20T09:01:05;4.50;99.90
11894;DHT22;6006;49.696;8.662;2022-11-20T09:03:32;4.50;99.90
11894;DHT22;6006;49.696;8.662;2022-11-20T09:06:01;4.50;99.90
11894;DHT22;6006;49.696;8.662;2022-11-20T09:08:28;4.60;99.90
11894;DHT22;6006;49.696;8.662;2022-11-20T09:10:57;4.70;99.90
11894;DHT22;6006;49.696;8.662;2022-11-20T09:13:26;4.70;99.90
11894;DHT22;6006;49.696;8.662;2022-11-20T09:15:54;4.70;99.90
11894;DHT22;6006;49.696;8.662;2022-11-20T09:18:22;4.70;99.90
11894;DHT22;6006;49.696;8.662;2022-11-20T09:20:49;4.80;99.90
11894;DHT22;6006;49.696;8.662;2022-11-20T09:23:16;4.90;99.90
11894;DHT22;6006;49.696;8.662;2022-11-20T09:25:43;4.90;99.90
11894;DHT22;6006;49.696;8.662;2022-11-20T09:28:10;4.90;99.90
11894;DHT22;6006;49.696;8.662;2022-11-20T09:30:39;4.90;99.90
11894;DHT22;6006;49.696;8.662;2022-11-20T09:33:06;5.10;99.90
11894;DHT22;6006;49.696;8.662;2022-11-20T09:35:34;4.90;99.90
11894;DHT22;6006;49.696;8.662;2022-11-20T09:38:07;5.00;99.90
11894;DHT22;6006;49.696;8.662;2022-11-20T09:40:39;4.90;99.90
11894;DHT22;6006;49.696;8.662;2022-11-20T09:43:12;5.00;99.90
11894;DHT22;6006;49.696;8.662;2022-11-20T09:45:58;5.00;99.90
11894;DHT22;6006;49.696;8.662;2022-11-20T09:48:42;5.10;99.90
11894;DHT22;6006;49.696;8.662;2022-11-20T09:51:16;5.10;99.90
11894;DHT22;6006;49.696;8.662;2022-11-20T09:54:00;5.10;99.90
11894;DHT22;6006;49.696;8.662;2022-11-20T09:56:33;5.20;99.90
11894;DHT22;6006;49.696;8.662;2022-11-20T09:59:04;5.20;99.90
11894;DHT22;6006;49.696;8.662;2022-11-20T10:01:35;5.20;99.90
11894;DHT22;6006;49.696;8.662;2022-11-20T10:04:06;5.20;99.90
11894;DHT22;6006;49.696;8.662;2022-11-20T10:06:39;5.20;99.90
11894;DHT22;6006;49.696;8.662;2022-11-20T10:09:18;5.10;99.90
11894;DHT22;6006;49.696;8.662;2022-11-20T10:11:52;5.20;99.90
11894;DHT22;6006;49.696;8.662;2022-11-20T10:14:29;5.10;99.90
11894;DHT22;6006;49.696;8.662;2022-11-20T10:17:06;5.20;99.90
11894;DHT22;6006;49.696;8.662;2022-11-20T10:19:52;5.20;99.90
11894;DHT22;6006;49.696;8.662;2022-11-20T10:22:32;5.20;99.90
11894;DHT22;6006;49.696;8.662;2022-11-20T10:25:06;5.30;99.90
11894;DHT22;6006;49.696;8.662;2022-11-20T10:30:31;5.50;99.90
11894;DHT22;6006;49.696;8.662;2022-11-20T10:33:06;5.40;99.90
11894;DHT22;6006;49.696;8.662;2022-11-20T10:35:42;5.40;99.90
11894;DHT22;6006;49.696;8.662;2022-11-20T10:38:16;5.40;99.90
11894;DHT22;6006;49.696;8.662;2022-11-20T10:40:47;5.30;99.90
11894;DHT22;6006;49.696;8.662;2022-11-20T10:43:18;5.50;99.90
11894;DHT22;6006;49.696;8.662;2022-11-20T10:45:52;5.50;99.90
11894;DHT22;6006;49.696;8.662;2022-11-20T10:48:24;5.40;99.90
11894;DHT22;6006;49.696;8.662;2022-11-20T10:51:07;5.50;99.90
11894;DHT22;6006;49.696;8.662;2022-11-20T10:53:48;5.60;99.90
11894;DHT22;6006;49.696;8.662;2022-11-20T10:56:21;5.50;99.90
11894;DHT22;6006;49.696;8.662;2022-11-20T10:59:03;5.40;99.90
11894;DHT22;6006;49.696;8.662;2022-11-20T11:01:38;5.40;99.90
11894;DHT22;6006;49.696;8.662;2022-11-20T11:04:23;5.30;99.90
11894;DHT22;6006;49.696;8.662;2022-11-20T11:07:01;5.40;99.90
11894;DHT22;6006;49.696;8.662;2022-11-20T11:09:35;5.40;99.90
11894;DHT22;6006;49.696;8.662;2022-11-20T11:12:07;5.40;99.90
11894;DHT22;6006;49.696;8.662;2022-11-20T11:14:42;5.40;99.90
11894;DHT22;6006;49.696;8.662;2022-11-20T11:17:23;5.40;99.90
11894;DHT22;6006;49.696;8.662;2022-11-20T11:20:02;5.50;99.90
11894;DHT22;6006;49.696;8.662;2022-11-20T11:22:30;5.50;99.90
11894;DHT22;6006;49.696;8.662;2022-11-20T11:24:57;5.50;99.90
11894;DHT22;6006;49.696;8.662;2022-11-20T11:27:24;5.50;99.90
11894;DHT22;6006;49.696;8.662;2022-11-20T11:30:02;5.50;99.90
11894;DHT22;6006;49.696;8.662;2022-11-20T11:32:29;5.60;99.90
11894;DHT22;6006;49.696;8.662;2022-11-20T11:35:02;5.50;99.90
11894;DHT22;6006;49.696;8.662;2022-11-20T11:37:33;5.50;99.90
11894;DHT22;6006;49.696;8.662;2022-11-20T11:40:01;5.60;99.90
11894;DHT22;6006;49.696;8.662;2022-11-20T11:42:28;5.60;99.90
11894;DHT22;6006;49.696;8.662;2022-11-20T11:44:58;5.60;99.90
11894;DHT22;6006;49.696;8.662;2022-11-20T11:47:37;5.70;99.90
11894;DHT22;6006;49.696;8.662;2022-11-20T11:50:17;5.60;99.90
11894;DHT22;6006;49.696;8.662;2022-11-20T11:52:48;5.60;99.90
11894;DHT22;6006;49.696;8.662;2022-11-20T11:55:28;5.70;99.90
11894;DHT22;6006;49.696;8.662;2022-11-20T11:58:06;5.80;99.90
11894;DHT22;6006;49.696;8.662;2022-11-20T12:00:37;5.90;99.90
11894;DHT22;6006;49.696;8.662;2022-11-20T12:03:11;5.90;99.90
11894;DHT22;6006;49.696;8.662;2022-11-20T12:05:43;5.80;99.90
11894;DHT22;6006;49.696;8.662;2022-11-20T12:08:17;5.80;99.90
11894;DHT22;6006;49.696;8.662;2022-11-20T12:10:50;5.90;99.90
11894;DHT22;6006;49.696;8.662;2022-11-20T12:13:25;6.00;99.90
11894;DHT22;6006;49.696;8.662;2022-11-20T12:15:54;6.10;99.90
11894;DHT22;6006;49.696;8.662;2022-11-20T12:18:22;6.00;99.90
11894;DHT22;6006;49.696;8.662;2022-11-20T12:21:01;6.00;99.90
11894;DHT22;6006;49.696;8.662;2022-11-20T12:23:36;6.00;99.90
11894;DHT22;6006;49.696;8.662;2022-11-20T12:26:10;6.10;99.90
11894;DHT22;6006;49.696;8.662;2022-11-20T12:28:48;6.10;99.90
11894;DHT22;6006;49.696;8.662;2022-11-20T12:31:42;6.20;99.90
11894;DHT22;6006;49.696;8.662;2022-11-20T12:34:42;6.30;99.90
11894;DHT22;6006;49.696;8.662;2022-11-20T12:37:19;6.30;99.90
11894;DHT22;6006;49.696;8.662;2022-11-20T12:39:50;6.20;99.90
11894;DHT22;6006;49.696;8.662;2022-11-20T12:42:34;6.20;99.90
11894;DHT22;6006;49.696;8.662;2022-11-20T12:45:42;6.20;99.90
11894;DHT22;6006;49.696;8.662;2022-11-20T12:48:38;6.00;99.90
11894;DHT22;6006;49.696;8.662;2022-11-20T12:51:20;6.10;99.90
11894;DHT22;6006;49.696;8.662;2022-11-20T12:54:00;6.20;99.90
11894;DHT22;6006;49.696;8.662;2022-11-20T12:56:37;6.20;99.90
11894;DHT22;6006;49.696;8.662;2022-11-20T12:59:27;6.30;99.90
11894;DHT22;6006;49.696;8.662;2022-11-20T13:02:09;6.50;99.90
11894;DHT22;6006;49.696;8.662;2022-11-20T13:05:01;6.50;99.90
11894;DHT22;6006;49.696;8.662;2022-11-20T13:07:32;6.60;99.90
11894;DHT22;6006;49.696;8.662;2022-11-20T13:10:04;6.60;99.90
11894;DHT22;6006;49.696;8.662;2022-11-20T13:12:36;6.70;99.90
11894;DHT22;6006;49.696;8.662;2022-11-20T13:15:14;6.70;99.90
11894;DHT22;6006;49.696;8.662;2022-11-20T13:17:48;6.60;99.90
11894;DHT22;6006;49.696;8.662;2022-11-20T13:20:19;6.50;99.90
11894;DHT22;6006;49.696;8.662;2022-11-20T13:22:47;6.50;99.90
11894;DHT22;6006;49.696;8.662;2022-11-20T13:25:27;6.60;99.90
11894;DHT22;6006;49.696;8.662;2022-11-20T13:27:55;6.50;99.90
11894;DHT22;6006;49.696;8.662;2022-11-20T13:30:23;6.50;99.90
11894;DHT22;6006;49.696;8.662;2022-11-20T13:32:53;6.50;99.90
11894;DHT22;6006;49.696;8.662;2022-11-20T13:35:29;6.40;99.90
11894;DHT22;6006;49.696;8.662;2022-11-20T13:38:02;6.50;99.90
11894;DHT22;6006;49.696;8.662;2022-11-20T13:40:31;6.40;99.90
11894;DHT22;6006;49.696;8.662;2022-11-20T13:43:07;6.40;99.90
11894;DHT22;6006;49.696;8.662;2022-11-20T13:45:35;6.50;99.90
11894;DHT22;6006;49.696;8.662;2022-11-20T13:48:04;6.60;99.90
11894;DHT22;6006;49.696;8.662;2022-11-20T13:50:40;6.60;99.90
11894;DHT22;6006;49.696;8.662;2022-11-20T13:53:22;6.70;99.90
11894;DHT22;6006;49.696;8.662;2022-11-20T13:55:59;6.70;99.90
11894;DHT22;6006;49.696;8.662;2022-11-20T13:58:36;6.80;99.90
11894;DHT22;6006;49.696;8.662;2022-11-20T14:01:10;6.90;99.90
11894;DHT22;6006;49.696;8.662;2022-11-20T14:03:40;6.90;99.90
11894;DHT22;6006;49.696;8.662;2022-11-20T14:06:12;6.90;99.90
11894;DHT22;6006;49.696;8.662;2022-11-20T14:08:45;7.00;99.90
11894;DHT22;6006;49.696;8.662;2022-11-20T14:11:16;6.90;99.90
11894;DHT22;6006;49.696;8.662;2022-11-20T14:13:58;6.90;99.90
11894;DHT22;6006;49.696;8.662;2022-11-20T14:16:27;7.00;99.90
11894;DHT22;6006;49.696;8.662;2022-11-20T14:18:55;7.00;99.90
11894;DHT22;6006;49.696;8.662;2022-11-20T14:21:24;7.10;99.90
11894;DHT22;6006;49.696;8.662;2022-11-20T14:23:53;7.20;99.90
11894;DHT22;6006;49.696;8.662;2022-11-20T14:26:22;7.20;99.90
11894;DHT22;6006;49.696;8.662;2022-11-20T14:28:49;7.20;99.90
11894;DHT22;6006;49.696;8.662;2022-11-20T14:31:22;7.30;99.90
11894;DHT22;6006;49.696;8.662;2022-11-20T14:33:50;7.30;99.90
11894;DHT22;6006;49.696;8.662;2022-11-20T14:36:19;7.30;99.90
11894;DHT22;6006;49.696;8.662;2022-11-20T14:38:47;7.30;99.90
11894;DHT22;6006;49.696;8.662;2022-11-20T14:41:19;7.40;99.90
11894;DHT22;6006;49.696;8.662;2022-11-20T14:43:56;7.30;99.90
11894;DHT22;6006;49.696;8.662;2022-11-20T14:46:24;7.20;99.90
11894;DHT22;6006;49.696;8.662;2022-11-20T14:48:53;7.10;99.90
11894;DHT22;6006;49.696;8.662;2022-11-20T14:51:27;7.10;99.90
11894;DHT22;6006;49.696;8.662;2022-11-20T14:53:54;7.00;99.90
11894;DHT22;6006;49.696;8.662;2022-11-20T14:56:23;6.80;99.90
11894;DHT22;6006;49.696;8.662;2022-11-20T14:58:58;6.80;99.90
11894;DHT22;6006;49.696;8.662;2022-11-20T15:01:28;6.70;99.90
11894;DHT22;6006;49.696;8.662;2022-11-20T15:04:01;6.60;99.90
11894;DHT22;6006;49.696;8.662;2022-11-20T15:06:28;6.50;99.90
11894;DHT22;6006;49.696;8.662;2022-11-20T15:08:57;6.40;99.90
11894;DHT22;6006;49.696;8.662;2022-11-20T15:11:28;6.40;99.90
11894;DHT22;6006;49.696;8.662;2022-11-20T15:13:59;6.30;99.90
11894;DHT22;6006;49.696;8.662;2022-11-20T15:16:29;6.20;99.90
11894;DHT22;6006;49.696;8.662;2022-11-20T15:18:56;6.20;99.90
11894;DHT22;6006;49.696;8.662;2022-11-20T15:21:23;6.20;99.90
11894;DHT22;6006;49.696;8.662;2022-11-20T15:23:50;6.10;99.90
11894;DHT22;6006;49.696;8.662;2022-11-20T15:26:23;6.00;99.90
11894;DHT22;6006;49.696;8.662;2022-11-20T15:28:51;6.00;99.90
11894;DHT22;6006;49.696;8.662;2022-11-20T15:31:21;5.90;99.90
11894;DHT22;6006;49.696;8.662;2022-11-20T15:33:48;5.90;99.90
11894;DHT22;6006;49.696;8.662;2022-11-20T15:36:15;5.90;99.90
11894;DHT22;6006;49.696;8.662;2022-11-20T15:38:42;5.90;99.90
11894;DHT22;6006;49.696;8.662;2022-11-20T15:41:09;5.90;99.90
11894;DHT22;6006;49.696;8.662;2022-11-20T15:43:37;5.80;99.90
11894;DHT22;6006;49.696;8.662;2022-11-20T15:46:06;5.80;99.90
11894;DHT22;6006;49.696;8.662;2022-11-20T15:48:38;5.80;99.90
11894;DHT22;6006;49.696;8.662;2022-11-20T15:51:19;5.70;99.90
11894;DHT22;6006;49.696;8.662;2022-11-20T15:53:47;5.80;99.90
11894;DHT22;6006;49.696;8.662;2022-11-20T15:56:14;5.80;99.90
11894;DHT22;6006;49.696;8.662;2022-11-20T15:58:42;5.80;99.90
11894;DHT22;6006;49.696;8.662;2022-11-20T16:01:10;5.80;99.90
11894;DHT22;6006;49.696;8.662;2022-11-20T16:03:39;5.80;99.90
11894;DHT22;6006;49.696;8.662;2022-11-20T16:06:06;5.80;99.90
11894;DHT22;6006;49.696;8.662;2022-11-20T16:08:33;5.90;99.90
11894;DHT22;6006;49.696;8.662;2022-11-20T16:11:01;5.90;99.90
11894;DHT22;6006;49.696;8.662;2022-11-20T16:13:27;5.90;99.90
11894;DHT22;6006;49.696;8.662;2022-11-20T16:16:19;5.90;99.90
11894;DHT22;6006;49.696;8.662;2022-11-20T16:18:48;5.90;99.90
11894;DHT22;6006;49.696;8.662;2022-11-20T16:21:15;5.90;99.90
11894;DHT22;6006;49.696;8.662;2022-11-20T16:23:42;5.90;99.90